Kvitbjoern — LM9158 — position and weather

sailwx.info

Track history (hours):
 
Tides and Currents Weather Stations Pressure Air Temp Water Temp Dewpoint Dewpoint Depression Visibility Wind Speed Wind Dir Waves Ship Positions

Kvitbjoern

Last reported at 2014-Nov-28 07:34 UTC. Time now 2014-Nov-28 08:11 UTC.
Position N 66°22' E 012°22'.

Length 10 m.

Type: Fishing. MMSI: 257454420.

Date/timePositionNaut miles runAvg speedWind from/ knotsBaromVisibWave heightAir tempDewpointWater temp
2014-Nov-28 07:34N 66°22' E 012°22'0 0.0
2014-Nov-27 16:25N 66°22' E 012°21'0 0.0
2014-Nov-27 15:31N 66°22' E 012°21'0 0.0
2014-Nov-27 14:31N 66°22' E 012°21'1 1.3
2014-Nov-27 13:31N 66°23' E 012°24'2 1.6
2014-Nov-27 12:32N 66°21' E 012°23'0 0.2
2014-Nov-27 11:32N 66°21' E 012°24'0 0.5
2014-Nov-27 10:33N 66°22' E 012°24'1 0.5
2014-Nov-27 09:28N 66°22' E 012°23'0 0.5
2014-Nov-27 08:28N 66°22' E 012°24'1 0.1
2014-Nov-26 11:33N 66°22' E 012°21'1 1.1
2014-Nov-26 10:33N 66°22' E 012°23'1 0.6
2014-Nov-26 09:33N 66°22' E 012°23'1 0.7
2014-Nov-26 08:33N 66°22' E 012°21'1 0.0
2014-Nov-25 12:33N 66°22' E 012°23'4 1.8
2014-Nov-25 10:32N 66°23' E 012°32'3 2.7
2014-Nov-25 09:29N 66°23' E 012°24'1 0.6
2014-Nov-25 08:30N 66°22' E 012°24'1 0.9
2014-Nov-25 07:33N 66°22' E 012°22'0 0.0
2014-Nov-24 15:32N 66°22' E 012°21'0 0.0
2014-Nov-24 14:33N 66°22' E 012°21'2 2.2
2014-Nov-24 13:29N 66°22' E 012°27'1 1.0
2014-Nov-24 12:31N 66°21' E 012°25'0 0.4
2014-Nov-24 11:20N 66°20' E 012°25'0 0.4
2014-Nov-24 10:33N 66°20' E 012°25'1 0.5
2014-Nov-24 09:31N 66°20' E 012°23'0 0.5
2014-Nov-24 08:33N 66°20' E 012°23'2 0.1
2014-Nov-22 13:27N 66°22' E 012°21'2 2.5
2014-Nov-22 12:34N 66°21' E 012°26'1 1.4
2014-Nov-22 11:32N 66°20' E 012°25'1 0.7
2014-Nov-22 10:31N 66°20' E 012°23'3 3.1
2014-Nov-22 09:33N 66°23' E 012°25'2 1.5
2014-Nov-22 08:33N 66°22' E 012°21'0 0.0
2014-Nov-20 14:15N 66°22' E 012°21'2 2.5
2014-Nov-20 13:31N 66°22' E 012°26'2 1.0
2014-Nov-20 11:33N 66°24' E 012°28'1 0.8
2014-Nov-20 10:30N 66°24' E 012°26'1 1.1
2014-Nov-20 09:31N 66°24' E 012°23'2 2.2
2014-Nov-20 08:28N 66°21' E 012°23'1 0.5
2014-Nov-20 07:28N 66°22' E 012°24'1 0.1
2014-Nov-19 15:29N 66°22' E 012°21'2 2.1
2014-Nov-19 14:33N 66°23' E 012°26'1 0.5
2014-Nov-19 13:31N 66°24' E 012°26'1 0.7
2014-Nov-19 12:33N 66°23' E 012°25'1 0.6
2014-Nov-19 11:31N 66°23' E 012°27'0 0.5
2014-Nov-19 10:25N 66°24' E 012°26'3 3.3
2014-Nov-19 09:33N 66°21' E 012°23'1 0.5
2014-Nov-19 08:26N 66°21' E 012°23'3 3.1
2014-Nov-19 07:32N 66°23' E 012°26'2 0.1
2014-Nov-18 15:22N 66°22' E 012°21'2 2.0
2014-Nov-18 14:33N 66°23' E 012°25'1 0.9
2014-Nov-18 13:33N 66°23' E 012°27'1 0.6
2014-Nov-18 11:33N 66°24' E 012°30'2 2.4
2014-Nov-18 10:32N 66°23' E 012°24'1 1.1
2014-Nov-18 09:31N 66°23' E 012°27'1 0.6
2014-Nov-18 08:25N 66°24' E 012°27'  
Track history (hours):
 
Tides and Currents Weather Stations Pressure Air Temp Water Temp Dewpoint Dewpoint Depression Visibility Wind Speed Wind Dir Waves Ship Positions

Kvitbjoern

Last reported at 2014-Nov-28 07:34 UTC. Time now 2014-Nov-28 08:11 UTC.
Position N 66°22' E 012°22'.

Length 10 m.

Type: Fishing. MMSI: 257454420.

Date/timePositionNaut miles runAvg speedWind from/ knotsBaromVisibWave heightAir tempDewpointWater temp
2014-Nov-28 07:34N 66°22' E 012°22'0 0.0
2014-Nov-27 16:25N 66°22' E 012°21'0 0.0
2014-Nov-27 15:31N 66°22' E 012°21'0 0.0
2014-Nov-27 14:31N 66°22' E 012°21'1 1.3
2014-Nov-27 13:31N 66°23' E 012°24'2 1.6
2014-Nov-27 12:32N 66°21' E 012°23'0 0.2
2014-Nov-27 11:32N 66°21' E 012°24'0 0.5
2014-Nov-27 10:33N 66°22' E 012°24'1 0.5
2014-Nov-27 09:28N 66°22' E 012°23'0 0.5
2014-Nov-27 08:28N 66°22' E 012°24'1 0.1
2014-Nov-26 11:33N 66°22' E 012°21'1 1.1
2014-Nov-26 10:33N 66°22' E 012°23'1 0.6
2014-Nov-26 09:33N 66°22' E 012°23'1 0.7
2014-Nov-26 08:33N 66°22' E 012°21'1 0.0
2014-Nov-25 12:33N 66°22' E 012°23'4 1.8
2014-Nov-25 10:32N 66°23' E 012°32'3 2.7
2014-Nov-25 09:29N 66°23' E 012°24'1 0.6
2014-Nov-25 08:30N 66°22' E 012°24'1 0.9
2014-Nov-25 07:33N 66°22' E 012°22'0 0.0
2014-Nov-24 15:32N 66°22' E 012°21'0 0.0
2014-Nov-24 14:33N 66°22' E 012°21'2 2.2
2014-Nov-24 13:29N 66°22' E 012°27'1 1.0
2014-Nov-24 12:31N 66°21' E 012°25'0 0.4
2014-Nov-24 11:20N 66°20' E 012°25'0 0.4
2014-Nov-24 10:33N 66°20' E 012°25'1 0.5
2014-Nov-24 09:31N 66°20' E 012°23'0 0.5
2014-Nov-24 08:33N 66°20' E 012°23'2 0.1
2014-Nov-22 13:27N 66°22' E 012°21'2 2.5
2014-Nov-22 12:34N 66°21' E 012°26'1 1.4
2014-Nov-22 11:32N 66°20' E 012°25'1 0.7
2014-Nov-22 10:31N 66°20' E 012°23'3 3.1
2014-Nov-22 09:33N 66°23' E 012°25'2 1.5
2014-Nov-22 08:33N 66°22' E 012°21'0 0.0
2014-Nov-20 14:15N 66°22' E 012°21'2 2.5
2014-Nov-20 13:31N 66°22' E 012°26'2 1.0
2014-Nov-20 11:33N 66°24' E 012°28'1 0.8
2014-Nov-20 10:30N 66°24' E 012°26'1 1.1
2014-Nov-20 09:31N 66°24' E 012°23'2 2.2
2014-Nov-20 08:28N 66°21' E 012°23'1 0.5
2014-Nov-20 07:28N 66°22' E 012°24'1 0.1
2014-Nov-19 15:29N 66°22' E 012°21'2 2.1
2014-Nov-19 14:33N 66°23' E 012°26'1 0.5
2014-Nov-19 13:31N 66°24' E 012°26'1 0.7
2014-Nov-19 12:33N 66°23' E 012°25'1 0.6
2014-Nov-19 11:31N 66°23' E 012°27'0 0.5
2014-Nov-19 10:25N 66°24' E 012°26'3 3.3
2014-Nov-19 09:33N 66°21' E 012°23'1 0.5
2014-Nov-19 08:26N 66°21' E 012°23'3 3.1
2014-Nov-19 07:32N 66°23' E 012°26'2 0.1
2014-Nov-18 15:22N 66°22' E 012°21'2 2.0
2014-Nov-18 14:33N 66°23' E 012°25'1 0.9
2014-Nov-18 13:33N 66°23' E 012°27'1 0.6
2014-Nov-18 11:33N 66°24' E 012°30'2 2.4
2014-Nov-18 10:32N 66°23' E 012°24'1 1.1
2014-Nov-18 09:31N 66°23' E 012°27'1 0.6
2014-Nov-18 08:25N 66°24' E 012°27'  

Dump ship's entire track history